createdAt,value
2023-05-22T00:01:03.607Z,9.73
2023-05-22T00:03:36.011Z,10.93
2023-05-22T00:08:40.554Z,9.48
2023-05-22T00:11:31.078Z,11.23
2023-05-22T00:14:01.996Z,10.43
2023-05-22T00:16:34.389Z,9.90
2023-05-22T00:19:06.753Z,9.80
2023-05-22T00:21:40.450Z,10.02
2023-05-22T00:24:13.104Z,11.75
2023-05-22T00:26:44.935Z,10.30
2023-05-22T00:29:16.728Z,10.55
2023-05-22T00:31:48.090Z,10.65
2023-05-22T00:34:22.919Z,10.43
2023-05-22T00:36:53.924Z,11.27
2023-05-22T00:39:25.699Z,11.25
2023-05-22T00:41:57.194Z,10.85
2023-05-22T00:44:28.944Z,10.32
2023-05-22T00:47:00.650Z,13.02
2023-05-22T00:49:32.406Z,10.15
2023-05-22T00:52:03.917Z,10.98
2023-05-22T00:54:37.199Z,9.65
2023-05-22T00:57:09.360Z,10.55
2023-05-22T00:59:40.457Z,10.10
2023-05-22T01:02:12.867Z,7.32
2023-05-22T01:04:51.175Z,4.82
2023-05-22T01:07:23.658Z,9.40
2023-05-22T01:09:54.691Z,7.72
2023-05-22T01:12:51.191Z,9.63
2023-05-22T01:15:43.347Z,9.85
2023-05-22T01:18:32.469Z,9.93
2023-05-22T01:21:38.619Z,9.23
2023-05-22T01:24:33.587Z,9.35
2023-05-22T01:27:05.572Z,11.30
2023-05-22T01:29:47.441Z,11.50
2023-05-22T01:32:23.386Z,11.13
2023-05-22T01:34:58.252Z,10.43
2023-05-22T01:37:30.574Z,12.23
2023-05-22T01:40:01.339Z,11.65
2023-05-22T01:42:32.670Z,12.60
2023-05-22T01:45:04.278Z,11.93
2023-05-22T01:47:35.539Z,12.02
2023-05-22T01:50:07.381Z,11.82
2023-05-22T01:52:39.262Z,10.43
2023-05-22T01:55:19.692Z,9.15
2023-05-22T01:58:01.940Z,8.50
2023-05-22T02:00:34.762Z,8.60
2023-05-22T02:03:19.213Z,8.07
2023-05-22T02:05:55.748Z,7.90
2023-05-22T02:08:27.247Z,8.73
2023-05-22T02:10:59.553Z,9.52
2023-05-22T02:13:30.530Z,9.00
2023-05-22T02:16:02.241Z,8.57
2023-05-22T02:18:32.960Z,9.75
2023-05-22T02:21:04.588Z,8.80
2023-05-22T02:23:34.958Z,8.90
2023-05-22T02:26:06.064Z,7.97
2023-05-22T02:28:36.678Z,8.73
2023-05-22T02:31:07.072Z,8.52
2023-05-22T02:33:37.925Z,8.13
2023-05-22T02:36:12.045Z,8.15
2023-05-22T02:38:42.363Z,8.57
2023-05-22T02:41:12.816Z,8.55
2023-05-22T02:43:43.024Z,8.35
2023-05-22T02:46:13.367Z,8.40
2023-05-22T02:48:43.889Z,8.80
2023-05-22T02:51:14.140Z,8.45
2023-05-22T02:53:44.271Z,8.15
2023-05-22T02:56:14.799Z,7.63
2023-05-22T02:58:44.987Z,8.25
2023-05-22T03:01:15.135Z,8.93
2023-05-22T03:03:45.589Z,8.73
2023-05-22T03:06:16.802Z,8.80
2023-05-22T03:08:49.498Z,8.25
2023-05-22T03:13:49.220Z,8.18
2023-05-22T03:16:19.684Z,7.55
2023-05-22T03:19:10.102Z,8.13
2023-05-22T03:21:41.828Z,8.45
2023-05-22T03:24:13.737Z,8.70
2023-05-22T03:26:45.077Z,8.43
2023-05-22T03:29:21.818Z,8.68
2023-05-22T03:31:52.398Z,9.07
2023-05-22T03:34:23.805Z,8.50
2023-05-22T03:36:54.352Z,8.10
2023-05-22T03:39:24.602Z,7.65
2023-05-22T03:42:01.112Z,7.85
2023-05-22T03:44:32.181Z,7.40
2023-05-22T03:47:03.512Z,7.60
2023-05-22T03:49:35.222Z,7.80
2023-05-22T03:52:07.576Z,7.65
2023-05-22T03:54:37.709Z,8.10
2023-05-22T03:57:08.559Z,7.88
2023-05-22T03:59:39.051Z,7.50
2023-05-22T04:02:09.427Z,7.93
2023-05-22T04:04:40.116Z,7.70
2023-05-22T04:07:10.612Z,8.15
2023-05-22T04:09:42.400Z,7.38
2023-05-22T04:12:12.825Z,8.13
2023-05-22T04:14:42.969Z,8.60
2023-05-22T04:17:13.158Z,7.97
2023-05-22T04:19:43.512Z,7.35
2023-05-22T04:22:14.052Z,8.23
2023-05-22T04:27:23.742Z,7.32
2023-05-22T04:29:54.787Z,7.68
2023-05-22T04:32:27.635Z,7.03
2023-05-22T04:35:01.680Z,7.90
2023-05-22T04:37:32.904Z,6.18
2023-05-22T04:40:08.639Z,6.38
2023-05-22T04:42:43.993Z,6.95
2023-05-22T04:45:15.180Z,8.02
2023-05-22T04:47:45.705Z,7.03
2023-05-22T04:50:16.020Z,7.03
2023-05-22T04:52:46.420Z,6.00
2023-05-22T04:55:17.828Z,5.88
2023-05-22T04:57:48.547Z,6.63
2023-05-22T05:00:19.127Z,6.28
2023-05-22T05:02:51.004Z,6.03
2023-05-22T05:05:21.225Z,6.32
2023-05-22T05:07:52.962Z,6.90
2023-05-22T05:10:23.396Z,6.30
2023-05-22T05:12:55.022Z,5.90
2023-05-22T05:15:25.261Z,6.13
2023-05-22T05:17:55.791Z,6.28
2023-05-22T05:20:26.130Z,6.05
2023-05-22T05:22:57.562Z,6.43
2023-05-22T05:25:27.832Z,6.63
2023-05-22T05:27:58.910Z,6.50
2023-05-22T05:30:31.262Z,6.35
2023-05-22T05:33:21.676Z,5.70
2023-05-22T05:36:27.065Z,6.60
2023-05-22T05:38:59.646Z,6.18
2023-05-22T05:41:30.418Z,6.45
2023-05-22T05:44:05.820Z,5.97
2023-05-22T05:46:37.105Z,6.47
2023-05-22T05:49:12.396Z,6.40
2023-05-22T05:51:43.744Z,5.90
2023-05-22T05:54:14.674Z,5.78
2023-05-22T05:56:45.128Z,4.95
2023-05-22T05:59:16.083Z,5.15
2023-05-22T06:02:09.964Z,5.82
2023-05-22T06:04:41.362Z,5.32
2023-05-22T06:07:14.568Z,5.88
2023-05-22T06:09:50.080Z,5.70
2023-05-22T06:12:33.197Z,5.45
2023-05-22T06:15:03.545Z,6.20
2023-05-22T06:17:33.842Z,5.60
2023-05-22T06:20:06.615Z,5.68
2023-05-22T06:22:37.810Z,6.28
2023-05-22T06:25:08.653Z,6.03
2023-05-22T06:27:40.279Z,5.57
2023-05-22T06:30:11.446Z,5.85
2023-05-22T06:32:42.577Z,5.78
2023-05-22T06:35:13.651Z,5.72
2023-05-22T06:37:44.361Z,5.15
2023-05-22T06:40:15.047Z,5.45
2023-05-22T06:42:52.269Z,5.50
2023-05-22T06:45:48.729Z,5.47
2023-05-22T06:48:42.014Z,5.43
2023-05-22T06:51:17.917Z,6.25
2023-05-22T06:53:53.258Z,5.97
2023-05-22T06:56:29.180Z,5.20
2023-05-22T06:59:07.833Z,5.50
2023-05-22T07:02:00.614Z,5.45
2023-05-22T07:04:58.132Z,5.45
2023-05-22T07:07:41.523Z,5.35
2023-05-22T07:12:56.729Z,4.97
2023-05-22T07:15:27.942Z,5.00
2023-05-22T07:18:01.541Z,5.07
2023-05-22T07:20:33.095Z,4.97
2023-05-22T07:23:13.349Z,5.30
2023-05-22T07:25:44.872Z,5.78
2023-05-22T07:28:17.181Z,5.40
2023-05-22T07:30:56.575Z,5.20
2023-05-22T07:33:30.329Z,5.18
2023-05-22T07:36:00.691Z,5.30
2023-05-22T07:38:33.259Z,5.45
2023-05-22T07:41:06.033Z,5.35
2023-05-22T07:43:37.375Z,5.57
2023-05-22T07:46:08.646Z,5.75
2023-05-22T07:48:52.663Z,5.80
2023-05-22T07:51:22.843Z,5.30
2023-05-22T07:53:56.029Z,6.03
2023-05-22T07:56:26.979Z,5.97
2023-05-22T07:58:58.565Z,6.15
2023-05-22T08:01:28.759Z,7.05
2023-05-22T08:03:59.221Z,7.03
2023-05-22T08:06:30.945Z,6.50
2023-05-22T08:09:01.499Z,6.47
2023-05-22T08:11:31.787Z,6.72
2023-05-22T08:14:02.086Z,6.82
2023-05-22T08:16:33.283Z,6.80
2023-05-22T08:19:04.526Z,6.85
2023-05-22T08:21:35.593Z,6.88
2023-05-22T08:24:05.990Z,7.72
2023-05-22T08:26:36.419Z,8.18
2023-05-22T08:29:06.716Z,7.10
2023-05-22T08:31:37.144Z,7.93
2023-05-22T08:34:08.502Z,7.68
2023-05-22T08:36:38.575Z,8.18
2023-05-22T08:39:09.922Z,7.10
2023-05-22T08:41:40.634Z,7.60
2023-05-22T08:44:12.358Z,8.05
2023-05-22T08:46:48.506Z,8.25
2023-05-22T08:49:23.647Z,8.10
2023-05-22T08:52:04.570Z,8.20
2023-05-22T08:54:38.096Z,8.73
2023-05-22T08:57:08.462Z,7.45
2023-05-22T08:59:42.620Z,8.45
2023-05-22T09:02:15.428Z,7.97
2023-05-22T09:04:46.031Z,7.43
2023-05-22T09:07:16.280Z,8.10
2023-05-22T09:09:46.576Z,7.72
2023-05-22T09:12:17.020Z,7.75
2023-05-22T09:14:47.490Z,7.43
2023-05-22T09:17:18.499Z,7.82
2023-05-22T09:19:49.325Z,7.60
2023-05-22T09:22:22.401Z,7.43
2023-05-22T09:24:54.830Z,7.18
2023-05-22T09:27:25.589Z,6.97
2023-05-22T09:29:59.350Z,7.55
2023-05-22T09:32:33.674Z,7.90
2023-05-22T09:35:07.514Z,7.68
2023-05-22T09:37:38.861Z,7.15
2023-05-22T09:40:12.313Z,7.45
2023-05-22T09:42:46.893Z,7.43
2023-05-22T09:45:25.221Z,6.60
2023-05-22T09:47:55.749Z,7.55
2023-05-22T09:50:26.193Z,6.95
2023-05-22T09:52:57.969Z,6.80
2023-05-22T09:55:29.638Z,7.03
2023-05-22T09:58:04.496Z,6.95
2023-05-22T10:00:38.051Z,7.50
2023-05-22T10:03:17.189Z,7.07
2023-05-22T10:05:53.806Z,6.82
2023-05-22T10:08:27.515Z,6.65
2023-05-22T10:10:59.787Z,7.07
2023-05-22T10:13:31.739Z,6.40
2023-05-22T10:16:04.491Z,7.15
2023-05-22T10:18:35.568Z,6.30
2023-05-22T10:21:05.968Z,6.63
2023-05-22T10:23:38.319Z,7.07
2023-05-22T10:26:10.169Z,6.55
2023-05-22T10:28:44.602Z,6.90
2023-05-22T10:31:50.565Z,6.50
2023-05-22T10:34:41.543Z,7.00
2023-05-22T10:37:44.586Z,7.15
2023-05-22T10:40:31.464Z,7.05
2023-05-22T10:43:02.683Z,7.20
2023-05-22T10:45:37.769Z,7.68
2023-05-22T10:48:10.254Z,8.38
2023-05-22T10:50:42.254Z,6.47
2023-05-22T10:53:29.403Z,7.75
2023-05-22T10:56:03.920Z,6.88
2023-05-22T10:58:40.933Z,7.40
2023-05-22T11:01:19.126Z,6.68
2023-05-22T11:04:06.931Z,7.22
2023-05-22T11:06:47.279Z,8.80
2023-05-22T11:09:31.036Z,9.60
2023-05-22T11:12:29.592Z,9.50
2023-05-22T11:15:11.617Z,8.52
2023-05-22T11:17:44.130Z,9.07
2023-05-22T11:20:20.298Z,9.00
2023-05-22T11:23:08.459Z,7.47
2023-05-22T11:25:41.668Z,7.65
2023-05-22T11:28:13.568Z,7.60
2023-05-22T11:30:45.273Z,7.90
2023-05-22T11:33:17.073Z,7.88
2023-05-22T11:35:49.738Z,7.28
2023-05-22T11:38:21.102Z,8.15
2023-05-22T11:40:54.431Z,8.73
2023-05-22T11:43:34.240Z,7.22
2023-05-22T11:46:12.371Z,8.18
2023-05-22T11:48:44.240Z,7.82
2023-05-22T11:51:14.984Z,7.72
2023-05-22T11:53:45.320Z,8.85
2023-05-22T11:56:15.697Z,8.75
2023-05-22T11:58:45.942Z,8.07
2023-05-22T12:01:16.524Z,7.78
2023-05-22T12:03:46.882Z,8.23
2023-05-22T12:06:18.657Z,9.13
2023-05-22T12:08:48.975Z,7.18
2023-05-22T12:11:19.427Z,7.10
2023-05-22T12:13:53.298Z,6.45
2023-05-22T12:16:24.084Z,5.75
2023-05-22T12:18:55.428Z,4.45
2023-05-22T12:21:26.773Z,4.82
2023-05-22T12:23:57.649Z,4.65
2023-05-22T12:26:27.965Z,4.10
2023-05-22T12:29:02.121Z,4.22
2023-05-22T12:31:39.680Z,3.95
2023-05-22T12:34:10.126Z,5.90
2023-05-22T12:36:44.475Z,3.92
2023-05-22T12:39:18.816Z,4.93
2023-05-22T12:41:49.658Z,4.47
2023-05-22T12:44:19.860Z,4.03
2023-05-22T12:46:50.114Z,4.00
2023-05-22T12:49:20.463Z,3.65
2023-05-22T12:51:50.736Z,3.78
2023-05-22T12:54:20.859Z,3.30
2023-05-22T12:56:50.860Z,4.45
2023-05-22T12:59:21.082Z,3.05
2023-05-22T13:01:51.472Z,3.20
2023-05-22T13:04:21.915Z,3.28
2023-05-22T13:06:52.106Z,3.70
2023-05-22T13:09:22.930Z,4.35
2023-05-22T13:11:53.259Z,3.78
2023-05-22T13:14:23.631Z,5.60
2023-05-22T13:16:54.727Z,4.70
2023-05-22T13:19:25.139Z,4.18
2023-05-22T13:21:56.306Z,4.82
2023-05-22T13:24:26.778Z,5.45
2023-05-22T13:26:57.029Z,4.43
2023-05-22T13:29:27.176Z,6.63
2023-05-22T13:31:57.555Z,5.55
2023-05-22T13:34:27.757Z,5.03
2023-05-22T13:36:58.185Z,4.60
2023-05-22T13:39:28.492Z,5.78
2023-05-22T13:41:58.839Z,5.45
2023-05-22T13:44:30.096Z,4.05
2023-05-22T13:47:00.952Z,4.55
2023-05-22T13:49:31.481Z,4.88
2023-05-22T13:52:01.961Z,4.97
2023-05-22T13:54:32.156Z,4.72
2023-05-22T13:57:03.728Z,4.53
2023-05-22T13:59:34.405Z,5.20
2023-05-22T14:02:04.757Z,4.25
2023-05-22T14:04:35.305Z,4.30
2023-05-22T14:07:05.910Z,3.25
2023-05-22T14:09:36.179Z,3.10
2023-05-22T14:12:06.614Z,3.63
2023-05-22T14:14:37.245Z,3.10
2023-05-22T14:17:09.820Z,2.58
2023-05-22T14:19:41.260Z,3.20
2023-05-22T14:22:11.452Z,4.07
2023-05-22T14:24:42.084Z,3.15
2023-05-22T14:27:12.478Z,3.67
2023-05-22T14:29:42.795Z,3.78
2023-05-22T14:32:12.941Z,3.38
2023-05-22T14:34:42.846Z,2.53
2023-05-22T14:37:13.165Z,1.67
2023-05-22T14:39:43.302Z,1.45
2023-05-22T14:42:13.711Z,1.80
2023-05-22T14:44:43.934Z,1.60
2023-05-22T14:47:14.277Z,1.55
2023-05-22T14:49:44.494Z,1.50
2023-05-22T14:52:15.162Z,1.85
2023-05-22T14:54:45.379Z,1.73
2023-05-22T14:57:15.811Z,1.80
2023-05-22T14:59:46.011Z,1.40
2023-05-22T15:02:16.537Z,1.23
2023-05-22T15:04:47.463Z,1.88
2023-05-22T15:07:18.077Z,1.80
2023-05-22T15:09:48.320Z,1.70
2023-05-22T15:12:18.976Z,1.35
2023-05-22T15:14:50.047Z,1.30
2023-05-22T15:17:20.293Z,1.30
2023-05-22T15:19:50.891Z,1.60
2023-05-22T15:22:21.213Z,1.52
2023-05-22T15:25:08.386Z,1.60
2023-05-22T15:27:40.930Z,1.67
2023-05-22T15:30:11.581Z,1.40
2023-05-22T15:32:43.233Z,1.40
2023-05-22T15:35:17.197Z,1.60
2023-05-22T15:37:47.798Z,1.20
2023-05-22T15:40:23.562Z,1.25
2023-05-22T15:42:54.824Z,1.33
2023-05-22T15:45:25.005Z,1.20
2023-05-22T15:47:56.314Z,1.63
2023-05-22T15:50:26.588Z,1.40
2023-05-22T15:52:57.097Z,1.45
2023-05-22T15:55:27.448Z,1.70
2023-05-22T15:57:59.770Z,1.30
2023-05-22T16:00:30.496Z,1.23
2023-05-22T16:03:01.460Z,1.75
2023-05-22T16:05:35.997Z,1.45
2023-05-22T16:08:12.897Z,1.52
2023-05-22T16:10:48.293Z,1.70
2023-05-22T16:13:18.757Z,1.27
2023-05-22T16:15:49.209Z,1.55
2023-05-22T16:18:21.774Z,1.20
2023-05-22T16:20:53.327Z,1.30
2023-05-22T16:23:23.631Z,2.03
2023-05-22T16:25:54.036Z,1.38
2023-05-22T16:28:24.264Z,1.60
2023-05-22T16:30:54.413Z,1.52
2023-05-22T16:33:26.223Z,1.60
2023-05-22T16:35:56.376Z,2.00
2023-05-22T16:38:26.789Z,1.80
2023-05-22T16:40:56.960Z,2.50
2023-05-22T16:43:27.315Z,2.15
2023-05-22T16:45:57.561Z,2.70
2023-05-22T16:48:27.753Z,2.40
2023-05-22T16:50:58.186Z,2.95
2023-05-22T16:53:28.423Z,2.38
2023-05-22T16:55:58.619Z,2.53
2023-05-22T16:58:28.981Z,2.72
2023-05-22T17:00:59.395Z,2.90
2023-05-22T17:03:29.811Z,2.50
2023-05-22T17:06:00.336Z,2.17
2023-05-22T17:08:30.895Z,2.20
2023-05-22T17:11:01.240Z,2.08
2023-05-22T17:13:31.670Z,2.30
2023-05-22T17:16:01.859Z,2.20
2023-05-22T17:18:32.289Z,2.30
2023-05-22T17:21:02.609Z,2.10
2023-05-22T17:23:32.801Z,2.10
2023-05-22T17:26:03.269Z,2.55
2023-05-22T17:28:33.734Z,2.00
2023-05-22T17:31:04.094Z,1.80
2023-05-22T17:33:34.914Z,1.33
2023-05-22T17:36:05.201Z,1.25
2023-05-22T17:38:35.366Z,1.10
2023-05-22T17:41:05.517Z,1.23
2023-05-22T17:43:36.401Z,1.40
2023-05-22T17:46:07.834Z,1.30
2023-05-22T17:48:38.113Z,1.10
2023-05-22T17:51:08.246Z,1.13
2023-05-22T17:53:39.263Z,1.27
2023-05-22T17:56:09.699Z,1.30
2023-05-22T17:58:39.843Z,1.17
2023-05-22T18:01:09.808Z,1.17
2023-05-22T18:03:39.982Z,1.25
2023-05-22T18:06:10.340Z,1.42
2023-05-22T18:11:13.116Z,1.05
2023-05-22T18:13:43.349Z,1.10
2023-05-22T18:16:13.436Z,1.20
2023-05-22T18:18:43.642Z,1.10
2023-05-22T18:21:13.886Z,1.58
2023-05-22T18:23:43.844Z,1.13
2023-05-22T18:26:13.827Z,0.98
2023-05-22T18:28:43.780Z,1.30
2023-05-22T18:31:13.801Z,0.98
2023-05-22T18:33:45.979Z,1.10
2023-05-22T18:36:19.376Z,1.10
2023-05-22T18:38:49.616Z,1.00
2023-05-22T18:41:20.373Z,1.30
2023-05-22T18:43:50.455Z,0.73
2023-05-22T18:46:20.852Z,0.80
2023-05-22T18:48:51.597Z,1.13
2023-05-22T18:51:21.928Z,1.33
2023-05-22T18:53:53.043Z,1.30
2023-05-22T18:56:23.292Z,1.35
2023-05-22T18:58:53.569Z,0.80
2023-05-22T19:01:23.799Z,0.90
2023-05-22T19:03:54.168Z,1.10
2023-05-22T19:06:24.711Z,1.05
2023-05-22T19:08:55.135Z,1.13
2023-05-22T19:11:25.410Z,0.93
2023-05-22T19:13:56.888Z,0.93
2023-05-22T19:16:27.166Z,1.00
2023-05-22T19:18:57.671Z,0.90
2023-05-22T19:21:27.980Z,1.00
2023-05-22T19:23:58.141Z,1.00
2023-05-22T19:26:28.458Z,1.02
2023-05-22T19:29:00.583Z,0.98
2023-05-22T19:31:31.769Z,1.00
2023-05-22T19:34:02.045Z,1.30
2023-05-22T19:36:32.811Z,1.00
2023-05-22T19:39:03.002Z,1.00
2023-05-22T19:41:33.258Z,1.05
2023-05-22T19:44:03.758Z,1.23
2023-05-22T19:46:34.057Z,1.30
2023-05-22T19:49:04.334Z,0.90
2023-05-22T19:51:34.779Z,1.80
2023-05-22T19:54:05.492Z,1.52
2023-05-22T19:56:36.862Z,1.50
2023-05-22T19:59:07.033Z,1.15
2023-05-22T20:01:37.451Z,1.13
2023-05-22T20:04:07.844Z,1.75
2023-05-22T20:06:38.269Z,1.80
2023-05-22T20:09:08.446Z,1.55
2023-05-22T20:11:38.772Z,1.42
2023-05-22T20:14:09.490Z,2.25
2023-05-22T20:16:40.023Z,1.40
2023-05-22T20:19:10.457Z,1.52
2023-05-22T20:21:41.034Z,1.73
2023-05-22T20:24:18.598Z,1.60
2023-05-22T20:26:49.586Z,1.67
2023-05-22T20:29:19.841Z,1.73
2023-05-22T20:31:51.848Z,1.70
2023-05-22T20:34:22.040Z,1.80
2023-05-22T20:36:54.613Z,2.00
2023-05-22T20:39:24.914Z,1.77
2023-05-22T20:41:55.628Z,1.80
2023-05-22T20:44:26.020Z,2.05
2023-05-22T20:46:56.655Z,2.20
2023-05-22T20:49:27.316Z,2.30
2023-05-22T20:52:01.109Z,2.17
2023-05-22T20:54:35.401Z,1.92
2023-05-22T20:57:06.886Z,2.25
2023-05-22T20:59:38.695Z,1.92
2023-05-22T21:02:09.269Z,2.13
2023-05-22T21:04:39.475Z,2.05
2023-05-22T21:07:09.785Z,2.03
2023-05-22T21:09:39.979Z,2.17
2023-05-22T21:12:10.464Z,2.40
2023-05-22T21:14:41.539Z,2.47
2023-05-22T21:17:12.136Z,2.35
2023-05-22T21:19:42.497Z,2.78
2023-05-22T21:22:12.649Z,3.33
2023-05-22T21:24:43.045Z,2.63
2023-05-22T21:27:13.331Z,3.03
2023-05-22T21:29:43.515Z,2.67
2023-05-22T21:32:15.363Z,2.45
2023-05-22T21:34:45.727Z,2.95
2023-05-22T21:37:16.163Z,3.50
2023-05-22T21:39:46.406Z,3.33
2023-05-22T21:42:17.727Z,2.72
2023-05-22T21:44:47.896Z,3.22
2023-05-22T21:47:19.252Z,2.40
2023-05-22T21:49:49.570Z,2.40
2023-05-22T21:52:19.914Z,2.55
2023-05-22T21:54:50.290Z,2.38
2023-05-22T21:57:20.496Z,2.72
2023-05-22T21:59:52.112Z,2.08
2023-05-22T22:02:22.746Z,2.83
2023-05-22T22:04:53.239Z,2.65
2023-05-22T22:07:23.479Z,3.05
2023-05-22T22:09:53.696Z,2.75
2023-05-22T22:12:24.012Z,3.65
2023-05-22T22:14:54.254Z,2.58
2023-05-22T22:17:24.551Z,2.90
2023-05-22T22:19:58.532Z,2.83
2023-05-22T22:22:28.637Z,2.22
2023-05-22T22:24:58.881Z,2.92
2023-05-22T22:27:29.059Z,2.83
2023-05-22T22:29:59.172Z,2.58
2023-05-22T22:32:29.523Z,3.10
2023-05-22T22:34:59.653Z,3.30
2023-05-22T22:37:29.620Z,3.03
2023-05-22T22:40:00.685Z,2.83
2023-05-22T22:42:30.808Z,4.10
2023-05-22T22:45:02.506Z,4.82
2023-05-22T22:47:34.003Z,4.07
2023-05-22T22:50:14.085Z,3.88
2023-05-22T22:52:48.328Z,3.95
2023-05-22T22:55:18.973Z,3.80
2023-05-22T22:57:51.177Z,4.47
2023-05-22T23:00:21.793Z,4.18
2023-05-22T23:02:51.946Z,3.90
2023-05-22T23:05:22.501Z,3.72
2023-05-22T23:07:52.606Z,3.78
2023-05-22T23:10:23.625Z,3.80
2023-05-22T23:12:54.016Z,3.30
2023-05-22T23:15:24.444Z,3.08
2023-05-22T23:17:55.656Z,3.67
2023-05-22T23:20:25.936Z,3.88
2023-05-22T23:22:56.552Z,4.20
2023-05-22T23:25:27.593Z,3.85
2023-05-22T23:27:59.016Z,3.25
2023-05-22T23:30:30.730Z,3.60
2023-05-22T23:33:21.645Z,3.53
2023-05-22T23:35:52.409Z,3.38
2023-05-22T23:38:23.518Z,3.00
2023-05-22T23:40:54.068Z,3.35
2023-05-22T23:43:25.658Z,3.10
2023-05-22T23:45:57.903Z,2.97
2023-05-22T23:48:32.534Z,3.63
2023-05-22T23:51:06.480Z,3.30
2023-05-22T23:53:40.929Z,3.97
2023-05-22T23:56:12.216Z,4.00
2023-05-22T23:58:43.729Z,2.85
